Terminal Aerodrome Forecast
Issued by NWS

Home | Current Version | Previous Version | Text Only | Print | Product List | Glossary On
Versions: 1 2 3 4 5 6 7 8 9 10 11 12 13 14 15 16
000
FTUS42 KTBW 251733
TAFPIE
TAF
KPIE 251733Z 2518/2618 15008KT P6SM VCTS SCT030CB SCT045
     FM252000 20008KT P6SM VCTS BKN035CB BKN050
     FM260000 19007KT P6SM SCT040 BKN100 BKN250
     FM260500 15004KT P6SM FEW050 SCT100 SCT250
     FM261500 15008KT P6SM SCT030 SCT250=

USA.gov is the U.S. government's official web portal to all federal, state and local government web resources and services.